createdAt,value
2018-08-13T00:01:24.277Z,98514.84
2018-08-13T00:03:53.288Z,98515.34
2018-08-13T00:06:25.663Z,98538.47
2018-08-13T00:08:54.287Z,98510.95
2018-08-13T00:11:28.722Z,98505.91
2018-08-13T00:17:15.377Z,98499.20
2018-08-13T00:19:44.849Z,98497.06
2018-08-13T00:22:13.147Z,98491.23
2018-08-13T00:24:43.905Z,98493.91
2018-08-13T00:27:12.560Z,98495.49
2018-08-13T00:29:40.957Z,98490.52
2018-08-13T00:32:09.414Z,98485.75
2018-08-13T00:34:38.697Z,98491.98
2018-08-13T00:37:07.655Z,98481.75
2018-08-13T00:39:37.754Z,98489.17
2018-08-13T00:42:06.534Z,98479.62
2018-08-13T00:44:36.851Z,98484.70
2018-08-13T00:47:07.570Z,98477.00
2018-08-13T00:49:36.775Z,98470.34
2018-08-13T00:52:06.281Z,98467.66
2018-08-13T00:54:34.890Z,98470.47
2018-08-13T00:57:03.686Z,98465.95
2018-08-13T00:59:33.339Z,98467.84
2018-08-13T01:02:01.602Z,98459.05
2018-08-13T01:04:30.320Z,98459.05
2018-08-13T01:06:59.816Z,98460.23
2018-08-13T01:09:28.015Z,98459.63
2018-08-13T01:11:56.941Z,98453.05
2018-08-13T01:14:25.554Z,98453.20
2018-08-13T01:16:53.888Z,98450.72
2018-08-13T01:19:23.204Z,98424.02
2018-08-13T01:21:51.300Z,98451.59
2018-08-13T01:24:21.345Z,98324.16
2018-08-13T01:26:50.330Z,98428.48
2018-08-13T01:29:19.566Z,98428.22
2018-08-13T01:31:48.018Z,98274.49
2018-08-13T01:34:16.608Z,98425.95
2018-08-13T01:36:45.336Z,98417.84
2018-08-13T01:39:13.770Z,98415.58
2018-08-13T01:41:42.735Z,98413.22
2018-08-13T01:44:10.896Z,98407.63
2018-08-13T01:46:39.212Z,98411.59
2018-08-13T01:49:08.388Z,98414.27
2018-08-13T01:51:36.548Z,98414.95
2018-08-13T01:54:04.700Z,98416.54
2018-08-13T01:56:34.076Z,98414.49
2018-08-13T01:59:03.179Z,98410.81
2018-08-13T02:01:31.442Z,98401.89
2018-08-13T02:04:01.580Z,98401.70
2018-08-13T02:06:30.744Z,98401.27
2018-08-13T02:08:59.180Z,98398.80
2018-08-13T02:11:27.916Z,98392.89
2018-08-13T02:13:56.115Z,98388.92
2018-08-13T02:16:24.840Z,98375.86
2018-08-13T02:18:52.958Z,98379.67
2018-08-13T02:21:21.084Z,98379.39
2018-08-13T02:23:49.963Z,98374.09
2018-08-13T02:26:18.248Z,98336.64
2018-08-13T02:28:47.142Z,98379.53
2018-08-13T02:31:15.251Z,98369.31
2018-08-13T02:33:44.602Z,98374.24
2018-08-13T02:36:13.166Z,98372.45
2018-08-13T02:38:41.573Z,98370.08
2018-08-13T02:41:09.742Z,98371.20
2018-08-13T02:43:38.136Z,98194.98
2018-08-13T02:46:06.888Z,98377.00
2018-08-13T02:48:36.761Z,98350.16
2018-08-13T02:51:05.340Z,98370.19
2018-08-13T02:53:33.684Z,98372.77
2018-08-13T02:56:02.513Z,98369.98
2018-08-13T02:58:31.095Z,98370.19
2018-08-13T03:01:00.749Z,98362.66
2018-08-13T03:03:30.800Z,98123.53
2018-08-13T03:06:00.213Z,98364.03
2018-08-13T03:08:30.624Z,98371.79
2018-08-13T03:10:59.495Z,98360.48
2018-08-13T03:13:29.373Z,98358.64
2018-08-13T03:15:57.505Z,98356.06
2018-08-13T03:18:27.267Z,98366.40
2018-08-13T03:20:57.225Z,98362.96
2018-08-13T03:23:26.091Z,98234.20
2018-08-13T03:25:55.038Z,98358.59
2018-08-13T03:28:23.562Z,98355.89
2018-08-13T03:30:53.388Z,98357.57
2018-08-13T03:33:22.806Z,98361.73
2018-08-13T03:35:51.153Z,98359.27
2018-08-13T03:38:19.307Z,98361.59
2018-08-13T03:40:48.075Z,98223.08
2018-08-13T03:43:16.668Z,98360.95
2018-08-13T03:45:45.754Z,98339.98
2018-08-13T03:48:14.309Z,98370.87
2018-08-13T03:50:42.629Z,98367.67
2018-08-13T03:53:11.029Z,98372.20
2018-08-13T03:55:39.809Z,98348.13
2018-08-13T03:58:08.686Z,98371.19
2018-08-13T04:00:37.128Z,98369.55
2018-08-13T04:03:06.704Z,98367.39
2018-08-13T04:05:34.948Z,98363.97
2018-08-13T04:08:07.441Z,98364.73
2018-08-13T04:10:37.175Z,98357.95
2018-08-13T04:13:05.739Z,98354.22
2018-08-13T04:15:41.248Z,98323.17
2018-08-13T04:18:09.857Z,98351.64
2018-08-13T04:23:36.182Z,98359.39
2018-08-13T04:26:05.527Z,98327.66
2018-08-13T04:28:34.072Z,98352.36
2018-08-13T04:31:03.241Z,98349.27
2018-08-13T04:33:31.669Z,98358.38
2018-08-13T04:35:59.799Z,98325.88
2018-08-13T04:38:28.885Z,98364.41
2018-08-13T04:40:57.435Z,98326.08
2018-08-13T04:43:25.581Z,98339.70
2018-08-13T04:45:54.389Z,98347.08
2018-08-13T04:48:23.262Z,98365.15
2018-08-13T04:50:51.668Z,98365.54
2018-08-13T04:55:53.561Z,98362.08
2018-08-13T04:58:21.740Z,98359.06
2018-08-13T05:00:50.462Z,98352.86
2018-08-13T05:03:19.135Z,98358.16
2018-08-13T05:05:48.088Z,98360.43
2018-08-13T05:08:17.120Z,98357.80
2018-08-13T05:10:47.596Z,98334.09
2018-08-13T05:13:16.008Z,98343.98
2018-08-13T05:15:44.798Z,98342.19
2018-08-13T05:18:13.275Z,98321.05
2018-08-13T05:20:41.981Z,98180.34
2018-08-13T05:23:10.877Z,98340.02
2018-08-13T05:25:39.150Z,98349.23
2018-08-13T05:28:08.068Z,98223.12
2018-08-13T05:30:37.544Z,98336.74
2018-08-13T05:33:05.708Z,98344.10
2018-08-13T05:35:34.487Z,98261.86
2018-08-13T05:38:03.280Z,98338.18
2018-08-13T05:40:31.790Z,98336.61
2018-08-13T05:43:00.255Z,98329.05
2018-08-13T05:45:28.957Z,98338.09
2018-08-13T05:47:57.282Z,98211.66
2018-08-13T05:50:25.868Z,98331.37
2018-08-13T05:52:54.366Z,98326.30
2018-08-13T05:55:22.615Z,98329.97
2018-08-13T05:57:52.676Z,98323.31
2018-08-13T06:00:21.244Z,98255.83
2018-08-13T06:02:50.651Z,98319.03
2018-08-13T06:05:19.024Z,98314.48
2018-08-13T06:07:48.602Z,98315.75
2018-08-13T06:10:16.820Z,98309.53
2018-08-13T06:12:45.500Z,98309.27
2018-08-13T06:15:14.918Z,98340.81
2018-08-13T06:17:43.877Z,98306.27
2018-08-13T06:20:12.706Z,98289.45
2018-08-13T06:22:43.631Z,98308.30
2018-08-13T06:25:13.929Z,98313.38
2018-08-13T06:27:42.381Z,98318.07
2018-08-13T06:30:13.922Z,98322.84
2018-08-13T06:32:42.700Z,98307.77
2018-08-13T06:35:11.967Z,98309.08
2018-08-13T06:37:42.926Z,98306.56
2018-08-13T06:40:11.364Z,98300.26
2018-08-13T06:42:39.901Z,98295.53
2018-08-13T06:45:09.107Z,98179.31
2018-08-13T06:47:37.979Z,98291.66
2018-08-13T06:50:12.268Z,98275.30
2018-08-13T06:52:42.567Z,98290.88
2018-08-13T06:55:11.217Z,98296.19
2018-08-13T06:57:39.716Z,98252.95
2018-08-13T07:00:14.186Z,98260.26
2018-08-13T07:02:42.989Z,98280.44
2018-08-13T07:05:11.797Z,98283.09
2018-08-13T07:07:40.509Z,98240.90
2018-08-13T07:10:12.888Z,98286.23
2018-08-13T07:12:45.147Z,98291.77
2018-08-13T07:15:16.362Z,98263.06
2018-08-13T07:17:45.072Z,98289.95
2018-08-13T07:20:17.050Z,98281.50
2018-08-13T07:22:46.028Z,98292.66
2018-08-13T07:25:16.159Z,98285.63
2018-08-13T07:27:45.248Z,98254.84
2018-08-13T07:30:15.063Z,98282.06
2018-08-13T07:32:44.539Z,98222.70
2018-08-13T07:35:12.827Z,98258.20
2018-08-13T07:37:41.931Z,98263.52
2018-08-13T07:40:13.311Z,98259.18
2018-08-13T07:42:44.214Z,98246.86
2018-08-13T07:45:12.806Z,98253.63
2018-08-13T07:47:41.417Z,98246.33
2018-08-13T07:50:12.193Z,98207.31
2018-08-13T07:52:42.396Z,98262.63
2018-08-13T07:55:11.798Z,98248.48
2018-08-13T07:57:40.435Z,98264.47
2018-08-13T08:00:11.601Z,98262.07
2018-08-13T08:02:40.096Z,98261.92
2018-08-13T08:05:13.094Z,98250.31
2018-08-13T08:07:48.125Z,98207.05
2018-08-13T08:10:18.213Z,98234.23
2018-08-13T08:12:46.568Z,98208.39
2018-08-13T08:15:17.300Z,98228.55
2018-08-13T08:17:46.355Z,98232.58
2018-08-13T08:20:15.884Z,98248.97
2018-08-13T08:22:45.930Z,98209.97
2018-08-13T08:25:17.726Z,98244.05
2018-08-13T08:27:48.195Z,98222.84
2018-08-13T08:30:16.716Z,98235.72
2018-08-13T08:32:45.701Z,98222.39
2018-08-13T08:35:15.668Z,98239.08
2018-08-13T08:37:43.983Z,98202.98
2018-08-13T08:40:15.010Z,98239.67
2018-08-13T08:42:44.217Z,98221.74
2018-08-13T08:45:15.651Z,98229.05
2018-08-13T08:47:45.692Z,98213.50
2018-08-13T08:50:16.108Z,98240.41
2018-08-13T08:52:53.096Z,98251.94
2018-08-13T08:55:26.973Z,98242.51
2018-08-13T08:57:55.385Z,98266.25
2018-08-13T09:00:24.576Z,98233.54
2018-08-13T09:02:55.097Z,98281.07
2018-08-13T09:05:23.652Z,98288.32
2018-08-13T09:07:52.314Z,98305.84
2018-08-13T09:10:20.503Z,98345.94
2018-08-13T09:12:48.672Z,98353.72
2018-08-13T09:15:17.546Z,98336.80
2018-08-13T09:17:57.639Z,98368.48
2018-08-13T09:20:36.808Z,98396.12
2018-08-13T09:23:16.454Z,98394.03
2018-08-13T09:25:55.597Z,98398.47
2018-08-13T09:28:36.473Z,98383.91
2018-08-13T09:31:20.709Z,98389.86
2018-08-13T09:34:00.160Z,98396.68
2018-08-13T09:36:36.589Z,98339.95
2018-08-13T09:39:14.334Z,98329.18
2018-08-13T09:41:42.594Z,98391.99
2018-08-13T09:44:11.314Z,98382.80
2018-08-13T09:46:39.871Z,98393.86
2018-08-13T09:49:08.158Z,98396.27
2018-08-13T09:51:37.534Z,98396.68
2018-08-13T09:54:07.780Z,98411.23
2018-08-13T09:56:38.651Z,98371.38
2018-08-13T09:59:08.240Z,98368.38
2018-08-13T10:01:40.874Z,98342.39
2018-08-13T10:04:09.256Z,98377.73
2018-08-13T10:06:40.013Z,98354.72
2018-08-13T10:09:08.887Z,98391.89
2018-08-13T10:11:38.529Z,98360.73
2018-08-13T10:14:06.800Z,98402.05
2018-08-13T10:16:36.797Z,98378.66
2018-08-13T10:19:06.372Z,98404.20
2018-08-13T10:21:34.765Z,98383.88
2018-08-13T10:24:03.328Z,98398.77
2018-08-13T10:26:31.609Z,98401.30
2018-08-13T10:29:00.171Z,98407.47
2018-08-13T10:31:28.621Z,98379.54
2018-08-13T10:33:57.100Z,98388.00
2018-08-13T10:36:25.261Z,98383.05
2018-08-13T10:38:54.469Z,98393.63
2018-08-13T10:41:22.666Z,98403.47
2018-08-13T10:43:51.124Z,98401.39
2018-08-13T10:46:19.309Z,98384.37
2018-08-13T10:48:47.530Z,98399.65
2018-08-13T10:51:16.408Z,98379.56
2018-08-13T10:53:45.110Z,98393.52
2018-08-13T10:56:13.276Z,98390.14
2018-08-13T10:58:42.732Z,98366.38
2018-08-13T11:01:11.286Z,98382.27
2018-08-13T11:03:39.551Z,98383.69
2018-08-13T11:06:08.061Z,98377.27
2018-08-13T11:08:36.713Z,98358.35
2018-08-13T11:11:05.120Z,98374.70
2018-08-13T11:13:35.576Z,98364.06
2018-08-13T11:16:04.977Z,98380.29
2018-08-13T11:18:33.211Z,98360.44
2018-08-13T11:21:01.673Z,98377.59
2018-08-13T11:23:29.972Z,98373.09
2018-08-13T11:25:58.881Z,98372.58
2018-08-13T11:28:27.537Z,98373.73
2018-08-13T11:30:55.733Z,98381.31
2018-08-13T11:33:24.012Z,98387.45
2018-08-13T11:35:52.476Z,98391.75
2018-08-13T11:38:20.915Z,98392.08
2018-08-13T11:40:48.974Z,98396.23
2018-08-13T11:43:17.320Z,98395.19
2018-08-13T11:45:46.122Z,98389.45
2018-08-13T11:48:16.174Z,98395.48
2018-08-13T11:50:44.851Z,98402.50
2018-08-13T11:53:13.182Z,98414.73
2018-08-13T11:55:41.553Z,98401.95
2018-08-13T11:58:10.087Z,98416.30
2018-08-13T12:00:39.156Z,98422.95
2018-08-13T12:03:08.411Z,98406.66
2018-08-13T12:05:37.750Z,98408.44
2018-08-13T12:08:07.035Z,98421.34
2018-08-13T12:10:35.330Z,98423.72
2018-08-13T12:13:04.563Z,98395.73
2018-08-13T12:15:32.726Z,98423.39
2018-08-13T12:18:01.087Z,98429.23
2018-08-13T12:20:29.630Z,98419.87
2018-08-13T12:22:57.832Z,98409.39
2018-08-13T12:25:28.742Z,98404.05
2018-08-13T12:27:56.969Z,98397.69
2018-08-13T12:30:25.598Z,98408.09
2018-08-13T12:32:54.392Z,98398.84
2018-08-13T12:35:22.989Z,98403.86
2018-08-13T12:37:51.498Z,98409.94
2018-08-13T12:40:20.206Z,98406.22
2018-08-13T12:42:48.388Z,98409.42
2018-08-13T12:45:17.988Z,98409.31
2018-08-13T12:47:47.190Z,98413.22
2018-08-13T12:50:23.680Z,98411.02
2018-08-13T12:52:52.554Z,98407.98
2018-08-13T12:55:21.738Z,98416.07
2018-08-13T12:57:50.039Z,98408.30
2018-08-13T13:00:19.030Z,98400.47
2018-08-13T13:02:47.513Z,98403.62
2018-08-13T13:05:16.726Z,98390.47
2018-08-13T13:07:45.014Z,98393.23
2018-08-13T13:10:14.970Z,98385.17
2018-08-13T13:12:43.326Z,98382.95
2018-08-13T13:15:14.400Z,98383.78
2018-08-13T13:17:43.470Z,98396.23
2018-08-13T13:20:20.212Z,98400.40
2018-08-13T13:22:50.002Z,98403.90
2018-08-13T13:25:19.107Z,98395.86
2018-08-13T13:27:47.297Z,98401.30
2018-08-13T13:30:16.912Z,98382.45
2018-08-13T13:32:45.595Z,98376.05
2018-08-13T13:35:15.428Z,98372.66
2018-08-13T13:37:43.869Z,98372.76
2018-08-13T13:40:13.694Z,98365.05
2018-08-13T13:42:41.877Z,98368.20
2018-08-13T13:45:11.228Z,98357.21
2018-08-13T13:47:39.720Z,98336.44
2018-08-13T13:50:12.578Z,98340.31
2018-08-13T13:52:41.394Z,98335.31
2018-08-13T13:55:09.730Z,98321.80
2018-08-13T13:57:37.894Z,98301.13
2018-08-13T14:00:15.170Z,98315.40
2018-08-13T14:02:43.609Z,98329.36
2018-08-13T14:05:12.127Z,98312.62
2018-08-13T14:07:40.643Z,98332.02
2018-08-13T14:10:14.552Z,98337.52
2018-08-13T14:12:44.401Z,98334.63
2018-08-13T14:15:13.856Z,98339.34
2018-08-13T14:17:42.973Z,98315.42
2018-08-13T14:20:12.069Z,98314.11
2018-08-13T14:22:40.856Z,98300.25
2018-08-13T14:25:10.925Z,98303.18
2018-08-13T14:27:40.017Z,98283.73
2018-08-13T14:30:12.431Z,98288.41
2018-08-13T14:32:43.329Z,98266.67
2018-08-13T14:35:12.095Z,98273.45
2018-08-13T14:37:40.954Z,98288.79
2018-08-13T14:40:11.255Z,98262.28
2018-08-13T14:42:43.766Z,98262.22
2018-08-13T14:45:14.103Z,98269.53
2018-08-13T14:47:45.080Z,98276.70
2018-08-13T14:50:14.850Z,98264.92
2018-08-13T14:52:44.778Z,98276.84
2018-08-13T14:55:15.486Z,98254.16
2018-08-13T14:57:44.248Z,98269.30
2018-08-13T15:00:24.102Z,98274.01
2018-08-13T15:02:56.144Z,98281.77
2018-08-13T15:05:27.915Z,98274.65
2018-08-13T15:07:57.468Z,98283.30
2018-08-13T15:10:26.447Z,98284.11
2018-08-13T15:12:55.565Z,98278.66
2018-08-13T15:15:23.917Z,98271.70
2018-08-13T15:17:52.650Z,98271.80
2018-08-13T15:20:22.967Z,98269.31
2018-08-13T15:22:51.918Z,98275.20
2018-08-13T15:25:21.241Z,98269.48
2018-08-13T15:27:49.773Z,98267.86
2018-08-13T15:30:19.942Z,98271.16
2018-08-13T15:32:49.583Z,98280.62
2018-08-13T15:35:17.712Z,98274.62
2018-08-13T15:37:46.575Z,98232.55
2018-08-13T15:40:16.885Z,98303.66
2018-08-13T15:42:45.287Z,98258.75
2018-08-13T15:45:16.867Z,98280.34
2018-08-13T15:47:45.917Z,98274.71
2018-08-13T15:50:17.949Z,98277.86
2018-08-13T15:52:46.709Z,98267.67
2018-08-13T15:55:15.484Z,98266.32
2018-08-13T15:57:44.331Z,98268.83
2018-08-13T16:00:19.137Z,98266.83
2018-08-13T16:02:48.651Z,98273.91
2018-08-13T16:05:18.980Z,98276.72
2018-08-13T16:07:48.952Z,98278.77
2018-08-13T16:10:18.299Z,98290.64
2018-08-13T16:12:46.971Z,98273.39
2018-08-13T16:15:15.372Z,98270.18
2018-08-13T16:17:45.229Z,98219.39
2018-08-13T16:20:17.815Z,98255.16
2018-08-13T16:22:47.560Z,98235.61
2018-08-13T16:25:17.277Z,98240.48
2018-08-13T16:27:48.146Z,98222.64
2018-08-13T16:30:23.825Z,98214.61
2018-08-13T16:32:55.434Z,98231.48
2018-08-13T16:35:24.586Z,98226.17
2018-08-13T16:37:54.675Z,98220.53
2018-08-13T16:40:23.723Z,98214.98
2018-08-13T16:42:52.822Z,98191.31
2018-08-13T16:45:22.583Z,98221.95
2018-08-13T16:47:53.840Z,98222.83
2018-08-13T16:50:30.017Z,98222.33
2018-08-13T16:52:59.324Z,98216.41
2018-08-13T16:55:30.593Z,98225.31
2018-08-13T16:57:59.957Z,98230.25
2018-08-13T17:00:30.329Z,98224.30
2018-08-13T17:03:03.126Z,98229.77
2018-08-13T17:05:34.080Z,98236.08
2018-08-13T17:08:03.982Z,98228.44
2018-08-13T17:10:32.364Z,98238.74
2018-08-13T17:13:01.572Z,98223.82
2018-08-13T17:15:32.176Z,98254.25
2018-08-13T17:18:01.592Z,98233.67
2018-08-13T17:20:33.627Z,98232.03
2018-08-13T17:23:07.067Z,98230.15
2018-08-13T17:25:36.279Z,98230.76
2018-08-13T17:28:09.525Z,98226.94
2018-08-13T17:30:39.247Z,98231.98
2018-08-13T17:33:09.111Z,98233.52
2018-08-13T17:35:38.440Z,98231.98
2018-08-13T17:38:11.259Z,98219.61
2018-08-13T17:40:40.314Z,98225.17
2018-08-13T17:43:10.434Z,98213.80
2018-08-13T17:45:39.204Z,98214.16
2018-08-13T17:48:09.982Z,98196.71
2018-08-13T17:50:39.581Z,98233.43
2018-08-13T17:53:10.396Z,98237.61
2018-08-13T17:55:38.859Z,98239.32
2018-08-13T17:58:08.027Z,98239.63
2018-08-13T18:00:37.393Z,98245.61
2018-08-13T18:03:06.075Z,98238.33
2018-08-13T18:05:34.496Z,98242.75
2018-08-13T18:08:05.106Z,98246.80
2018-08-13T18:10:36.172Z,98248.97
2018-08-13T18:13:08.230Z,98186.59
2018-08-13T18:15:36.856Z,98247.52
2018-08-13T18:18:06.009Z,98247.55
2018-08-13T18:20:34.580Z,98246.86
2018-08-13T18:23:04.122Z,98245.33
2018-08-13T18:25:33.815Z,98235.95
2018-08-13T18:28:02.026Z,98239.28
2018-08-13T18:30:30.770Z,98244.95
2018-08-13T18:33:00.036Z,98176.11
2018-08-13T18:35:28.298Z,98242.25
2018-08-13T18:37:57.368Z,98250.38
2018-08-13T18:40:30.645Z,98250.06
2018-08-13T18:42:59.361Z,98251.95
2018-08-13T18:45:27.845Z,98254.08
2018-08-13T18:47:56.949Z,98258.25
2018-08-13T18:50:25.164Z,98254.62
2018-08-13T18:52:53.576Z,98258.69
2018-08-13T18:55:23.234Z,98248.82
2018-08-13T18:57:52.237Z,98259.70
2018-08-13T19:00:23.784Z,98271.68
2018-08-13T19:02:52.775Z,98264.55
2018-08-13T19:05:21.731Z,98269.78
2018-08-13T19:07:50.769Z,98273.45
2018-08-13T19:10:24.262Z,98318.23
2018-08-13T19:12:53.242Z,98281.89
2018-08-13T19:15:23.800Z,98287.14
2018-08-13T19:17:53.314Z,98277.93
2018-08-13T19:20:22.106Z,98281.45
2018-08-13T19:22:50.643Z,98192.31
2018-08-13T19:25:22.526Z,98275.24
2018-08-13T19:27:50.804Z,98274.30
2018-08-13T19:30:20.028Z,98274.71
2018-08-13T19:32:49.472Z,98204.27
2018-08-13T19:35:18.246Z,98246.19
2018-08-13T19:37:46.897Z,98266.03
2018-08-13T19:40:17.130Z,98315.53
2018-08-13T19:42:46.467Z,98269.23
2018-08-13T19:45:15.912Z,98272.75
2018-08-13T19:47:45.060Z,98271.70
2018-08-13T19:50:13.977Z,98278.72
2018-08-13T19:52:43.409Z,98283.83
2018-08-13T19:55:13.177Z,98276.11
2018-08-13T19:57:41.498Z,98276.37
2018-08-13T20:00:13.306Z,98281.59
2018-08-13T20:02:41.791Z,98284.45
2018-08-13T20:05:10.182Z,98295.43
2018-08-13T20:07:38.615Z,98261.16
2018-08-13T20:10:08.708Z,98295.70
2018-08-13T20:12:36.864Z,98293.91
2018-08-13T20:15:05.404Z,98301.13
2018-08-13T20:17:33.833Z,98271.44
2018-08-13T20:20:04.187Z,98319.95
2018-08-13T20:22:32.765Z,98295.77
2018-08-13T20:25:00.993Z,98314.16
2018-08-13T20:27:29.481Z,98325.70
2018-08-13T20:29:57.860Z,98324.21
2018-08-13T20:32:27.064Z,98321.89
2018-08-13T20:34:55.214Z,98320.07
2018-08-13T20:37:23.418Z,98323.52
2018-08-13T20:39:51.609Z,98324.94
2018-08-13T20:42:20.042Z,98334.02
2018-08-13T20:44:48.302Z,98329.78
2018-08-13T20:47:17.560Z,98326.95
2018-08-13T20:49:46.129Z,98329.89
2018-08-13T20:52:14.443Z,98331.50
2018-08-13T20:54:43.145Z,98312.89
2018-08-13T20:57:11.433Z,98343.70
2018-08-13T20:59:40.322Z,98347.87
2018-08-13T21:02:09.448Z,98349.94
2018-08-13T21:04:37.801Z,98348.17
2018-08-13T21:07:06.837Z,98347.87
2018-08-13T21:09:35.559Z,98361.94
2018-08-13T21:12:03.881Z,98363.20
2018-08-13T21:14:32.409Z,98363.19
2018-08-13T21:17:01.204Z,98361.20
2018-08-13T21:19:29.460Z,98374.70
2018-08-13T21:21:57.686Z,98333.45
2018-08-13T21:24:26.602Z,98399.48
2018-08-13T21:26:55.225Z,98410.70
2018-08-13T21:29:23.533Z,98397.97
2018-08-13T21:31:52.199Z,98409.55
2018-08-13T21:34:20.429Z,98403.90
2018-08-13T21:36:48.923Z,98409.67
2018-08-13T21:39:17.404Z,98422.39
2018-08-13T21:41:45.792Z,98407.37
2018-08-13T21:44:14.050Z,98422.02
2018-08-13T21:46:42.805Z,98411.26
2018-08-13T21:49:11.148Z,98400.59
2018-08-13T21:51:39.616Z,98414.55
2018-08-13T21:54:08.132Z,98424.23
2018-08-13T21:56:37.278Z,98431.20
2018-08-13T21:59:07.266Z,98333.17
2018-08-13T22:01:41.787Z,98423.66
2018-08-13T22:04:10.291Z,98423.94
2018-08-13T22:06:38.457Z,98439.91
2018-08-13T22:09:08.449Z,98417.13
2018-08-13T22:11:36.796Z,98421.80
2018-08-13T22:14:06.333Z,98373.44
2018-08-13T22:16:34.445Z,98420.51
2018-08-13T22:19:03.384Z,98429.34
2018-08-13T22:21:31.870Z,98419.70
2018-08-13T22:24:12.022Z,98415.29
2018-08-13T22:26:40.711Z,98415.18
2018-08-13T22:29:08.961Z,98421.07
2018-08-13T22:31:37.871Z,98425.31
2018-08-13T22:34:07.085Z,98413.47
2018-08-13T22:36:35.344Z,98429.11
2018-08-13T22:39:05.445Z,98430.59
2018-08-13T22:41:34.306Z,98300.54
2018-08-13T22:44:03.013Z,98427.12
2018-08-13T22:46:31.819Z,98415.72
2018-08-13T22:49:00.457Z,98410.22
2018-08-13T22:51:28.994Z,98347.87
2018-08-13T22:53:57.747Z,98405.48
2018-08-13T22:56:26.304Z,98395.10
2018-08-13T22:58:54.540Z,98406.19
2018-08-13T23:01:23.293Z,98414.38
2018-08-13T23:03:52.111Z,98413.78
2018-08-13T23:06:20.623Z,98415.83
2018-08-13T23:08:49.566Z,98414.09
2018-08-13T23:11:17.738Z,98366.57
2018-08-13T23:13:46.264Z,98394.70
2018-08-13T23:16:14.460Z,98415.42
2018-08-13T23:18:43.055Z,98410.59
2018-08-13T23:21:11.245Z,98414.35
2018-08-13T23:23:39.824Z,98400.48
2018-08-13T23:26:08.314Z,98415.86
2018-08-13T23:28:36.709Z,98414.52
2018-08-13T23:31:05.234Z,98396.84
2018-08-13T23:33:33.552Z,98413.94
2018-08-13T23:36:02.015Z,98419.74
2018-08-13T23:38:30.572Z,98426.39
2018-08-13T23:40:59.001Z,98432.75
2018-08-13T23:43:27.332Z,98431.20
2018-08-13T23:45:56.015Z,98426.55
2018-08-13T23:48:24.566Z,98423.60
2018-08-13T23:50:53.633Z,98420.56
2018-08-13T23:53:22.672Z,98390.32
2018-08-13T23:55:51.079Z,98429.60
2018-08-13T23:58:19.739Z,98426.09
